FVBU

Joshua Mqabuko Nkomo International Airport

Bulawayo, Zimbabwe
METAR FVBU 230400Z 12009KT CAVOK 10/07 Q1032 NOSIG
Observed Flight Rules
Jul-23 @ 04:00 UTC (10 hours ago) Visual Flight Rules
Wind Visibility Clouds
120° at 9 knots 10,000+ meters
  • Clear skies
Temperatures Readings
Current 10°C / 50°F
Dewpoint 7°C / 45°F
Humidity 82%
Altimeter 30.47" Hg
Pressure 1032 hPa
Elevation 1326
METAR FVBU 230400Z 12009KT CAVOK 10/07 Q1032 NOSIG
Observed Flight Rules
Jul-23 @ 04:00 UTC
(10 hours ago)
VFR
Wind Visibility
120° at 9 knots 10,000+ meters
Clouds
  • Clear skies
Temperature Dewpoint
10°C / 50°F 7°C / 45°F
Humidity Altimeter Pressure
82% 30.47" Hg 1032 hPa